createdAt,value
2023-03-06T00:02:06.416Z,4.75
2023-03-06T00:04:32.957Z,4.38
2023-03-06T00:06:59.308Z,4.20
2023-03-06T00:09:25.682Z,4.68
2023-03-06T00:11:52.034Z,4.47
2023-03-06T00:14:18.376Z,4.32
2023-03-06T00:16:44.726Z,4.65
2023-03-06T00:19:11.648Z,4.50
2023-03-06T00:21:40.760Z,4.55
2023-03-06T00:24:07.310Z,4.43
2023-03-06T00:26:34.785Z,4.30
2023-03-06T00:29:01.239Z,4.25
2023-03-06T00:31:27.640Z,4.80
2023-03-06T00:33:54.074Z,4.22
2023-03-06T00:36:20.457Z,4.35
2023-03-06T00:38:46.816Z,4.38
2023-03-06T00:41:13.250Z,4.55
2023-03-06T00:43:40.008Z,5.18
2023-03-06T00:46:07.909Z,5.07
2023-03-06T00:48:34.779Z,4.75
2023-03-06T00:51:01.527Z,6.13
2023-03-06T00:53:27.973Z,5.60
2023-03-06T00:55:54.391Z,6.22
2023-03-06T00:58:20.743Z,6.03
2023-03-06T01:00:48.568Z,7.50
2023-03-06T01:03:16.165Z,7.93
2023-03-06T01:05:43.054Z,6.60
2023-03-06T01:08:09.422Z,7.57
2023-03-06T01:10:40.557Z,7.47
2023-03-06T01:13:07.020Z,7.90
2023-03-06T01:15:33.445Z,7.38
2023-03-06T01:18:00.097Z,7.85
2023-03-06T01:20:26.711Z,6.93
2023-03-06T01:22:55.341Z,7.88
2023-03-06T01:25:22.348Z,7.43
2023-03-06T01:27:50.882Z,8.00
2023-03-06T01:30:17.415Z,8.48
2023-03-06T01:32:43.949Z,6.75
2023-03-06T01:35:11.336Z,6.90
2023-03-06T01:37:38.892Z,7.22
2023-03-06T01:40:07.501Z,7.50
2023-03-06T01:42:34.124Z,7.93
2023-03-06T01:45:12.323Z,8.02
2023-03-06T01:47:38.742Z,8.68
2023-03-06T01:50:08.510Z,7.93
2023-03-06T01:52:46.053Z,8.43
2023-03-06T01:55:17.567Z,8.57
2023-03-06T01:57:46.777Z,8.68
2023-03-06T02:00:15.949Z,8.50
2023-03-06T02:02:46.748Z,8.57
2023-03-06T02:05:13.599Z,8.23
2023-03-06T02:07:42.301Z,8.95
2023-03-06T02:12:37.387Z,8.10
2023-03-06T02:17:30.697Z,8.13
2023-03-06T02:20:06.573Z,8.07
2023-03-06T02:23:00.911Z,8.57
2023-03-06T02:25:35.565Z,8.32
2023-03-06T02:28:03.480Z,8.48
2023-03-06T02:30:30.917Z,8.57
2023-03-06T02:32:58.104Z,8.57
2023-03-06T02:35:28.095Z,9.60
2023-03-06T02:37:57.485Z,8.57
2023-03-06T02:40:24.524Z,9.10
2023-03-06T02:42:56.186Z,8.80
2023-03-06T02:45:33.824Z,8.88
2023-03-06T02:48:00.293Z,8.30
2023-03-06T02:50:28.289Z,9.63
2023-03-06T02:52:54.945Z,9.35
2023-03-06T02:55:21.961Z,9.05
2023-03-06T02:57:48.394Z,8.55
2023-03-06T03:00:15.571Z,9.85
2023-03-06T03:02:42.793Z,9.45
2023-03-06T03:05:09.684Z,9.10
2023-03-06T03:07:40.857Z,9.65
2023-03-06T03:10:08.920Z,9.48
2023-03-06T03:12:35.317Z,9.55
2023-03-06T03:15:01.764Z,9.55
2023-03-06T03:17:28.395Z,8.88
2023-03-06T03:19:54.873Z,9.80
2023-03-06T03:22:22.089Z,9.90
2023-03-06T03:24:49.761Z,9.60
2023-03-06T03:27:16.221Z,9.73
2023-03-06T03:29:42.806Z,9.88
2023-03-06T03:32:09.796Z,9.70
2023-03-06T03:34:36.569Z,9.43
2023-03-06T03:37:03.349Z,8.43
2023-03-06T03:39:29.876Z,8.80
2023-03-06T03:41:56.625Z,8.93
2023-03-06T03:44:23.567Z,8.95
2023-03-06T03:46:50.090Z,9.13
2023-03-06T03:49:20.226Z,9.38
2023-03-06T03:51:47.560Z,8.90
2023-03-06T03:54:14.351Z,9.18
2023-03-06T03:56:45.022Z,10.25
2023-03-06T03:59:17.400Z,9.18
2023-03-06T04:01:55.923Z,9.60
2023-03-06T04:04:22.884Z,8.93
2023-03-06T04:06:49.251Z,10.10
2023-03-06T04:09:17.554Z,8.05
2023-03-06T04:11:44.414Z,10.43
2023-03-06T04:14:10.872Z,9.15
2023-03-06T04:16:37.350Z,9.93
2023-03-06T04:19:03.826Z,9.38
2023-03-06T04:21:30.926Z,9.00
2023-03-06T04:23:58.442Z,8.80
2023-03-06T04:26:24.850Z,8.98
2023-03-06T04:28:51.367Z,9.70
2023-03-06T04:31:18.237Z,8.70
2023-03-06T04:33:44.653Z,10.00
2023-03-06T04:36:25.242Z,9.10
2023-03-06T04:38:52.802Z,8.75
2023-03-06T04:41:19.208Z,10.13
2023-03-06T04:43:46.241Z,9.32
2023-03-06T04:46:12.748Z,9.52
2023-03-06T04:48:39.141Z,9.60
2023-03-06T04:51:05.891Z,9.50
2023-03-06T04:53:32.761Z,9.48
2023-03-06T04:55:59.461Z,9.57
2023-03-06T04:58:25.870Z,9.70
2023-03-06T05:00:52.308Z,9.35
2023-03-06T05:03:18.709Z,9.25
2023-03-06T05:05:45.082Z,9.45
2023-03-06T05:08:16.320Z,9.40
2023-03-06T05:10:43.393Z,9.43
2023-03-06T05:13:10.151Z,9.35
2023-03-06T05:15:36.978Z,8.57
2023-03-06T05:18:03.448Z,9.85
2023-03-06T05:20:29.924Z,9.60
2023-03-06T05:22:56.325Z,9.55
2023-03-06T05:25:22.722Z,9.57
2023-03-06T05:27:49.087Z,10.55
2023-03-06T05:30:15.637Z,9.15
2023-03-06T05:32:42.593Z,9.68
2023-03-06T05:35:16.987Z,9.05
2023-03-06T05:37:43.402Z,8.80
2023-03-06T05:40:10.707Z,8.52
2023-03-06T05:42:37.125Z,9.50
2023-03-06T05:45:04.427Z,9.38
2023-03-06T05:47:31.744Z,8.90
2023-03-06T05:49:58.292Z,9.63
2023-03-06T05:52:24.727Z,9.23
2023-03-06T05:54:53.137Z,9.38
2023-03-06T05:57:23.819Z,9.27
2023-03-06T05:59:50.702Z,9.02
2023-03-06T06:02:18.302Z,9.85
2023-03-06T06:04:44.798Z,8.82
2023-03-06T06:07:14.404Z,9.80
2023-03-06T06:09:40.877Z,9.13
2023-03-06T06:12:07.650Z,9.18
2023-03-06T06:14:34.751Z,9.73
2023-03-06T06:17:01.770Z,9.52
2023-03-06T06:19:29.876Z,10.55
2023-03-06T06:21:56.562Z,9.68
2023-03-06T06:24:25.187Z,9.43
2023-03-06T06:31:46.272Z,9.43
2023-03-06T06:34:13.109Z,10.23
2023-03-06T06:36:40.198Z,10.75
2023-03-06T06:39:08.246Z,10.52
2023-03-06T06:41:54.890Z,10.80
2023-03-06T06:44:22.041Z,10.88
2023-03-06T06:49:36.671Z,11.18
2023-03-06T06:52:04.157Z,9.88
2023-03-06T06:54:30.642Z,11.40
2023-03-06T06:56:56.990Z,10.30
2023-03-06T06:59:23.741Z,11.32
2023-03-06T07:01:51.692Z,11.38
2023-03-06T07:04:19.124Z,11.63
2023-03-06T07:06:46.294Z,11.45
2023-03-06T07:09:14.008Z,11.40
2023-03-06T07:11:41.197Z,11.38
2023-03-06T07:14:07.929Z,11.68
2023-03-06T07:16:34.315Z,10.65
2023-03-06T07:19:00.700Z,11.25
2023-03-06T07:21:27.065Z,10.75
2023-03-06T07:23:54.222Z,12.15
2023-03-06T07:26:20.646Z,11.02
2023-03-06T07:28:52.692Z,11.90
2023-03-06T07:31:22.051Z,11.93
2023-03-06T07:33:52.547Z,11.77
2023-03-06T07:36:19.380Z,10.52
2023-03-06T07:38:45.735Z,11.00
2023-03-06T07:41:13.575Z,10.60
2023-03-06T07:43:41.101Z,10.65
2023-03-06T07:46:08.295Z,10.25
2023-03-06T07:48:35.914Z,10.00
2023-03-06T07:51:05.378Z,10.40
2023-03-06T07:53:32.301Z,10.65
2023-03-06T07:55:58.812Z,10.68
2023-03-06T07:58:25.697Z,11.02
2023-03-06T08:00:52.258Z,10.40
2023-03-06T08:03:18.708Z,10.25
2023-03-06T08:05:45.511Z,11.00
2023-03-06T08:08:12.580Z,9.98
2023-03-06T08:10:39.033Z,10.65
2023-03-06T08:13:05.453Z,10.20
2023-03-06T08:15:31.920Z,9.77
2023-03-06T08:17:58.349Z,10.65
2023-03-06T08:20:24.775Z,9.35
2023-03-06T08:22:51.128Z,11.40
2023-03-06T08:25:17.538Z,12.30
2023-03-06T08:27:44.050Z,11.88
2023-03-06T08:30:10.897Z,11.13
2023-03-06T08:32:38.109Z,12.82
2023-03-06T08:35:05.470Z,12.07
2023-03-06T08:37:31.952Z,11.43
2023-03-06T08:39:58.654Z,14.70
2023-03-06T08:42:25.105Z,13.75
2023-03-06T08:44:52.498Z,14.98
2023-03-06T08:47:18.862Z,14.63
2023-03-06T08:49:45.354Z,13.80
2023-03-06T08:52:11.926Z,15.10
2023-03-06T08:54:39.079Z,13.13
2023-03-06T08:57:06.676Z,15.27
2023-03-06T08:59:33.166Z,14.23
2023-03-06T09:01:59.722Z,14.95
2023-03-06T09:04:26.142Z,14.80
2023-03-06T09:06:54.501Z,15.48
2023-03-06T09:09:21.854Z,17.25
2023-03-06T09:11:48.398Z,15.13
2023-03-06T09:14:14.785Z,15.43
2023-03-06T09:16:41.299Z,14.88
2023-03-06T09:19:07.690Z,14.68
2023-03-06T09:21:34.118Z,15.70
2023-03-06T09:24:00.624Z,15.80
2023-03-06T09:26:39.536Z,13.57
2023-03-06T09:29:12.422Z,14.80
2023-03-06T09:31:38.828Z,13.98
2023-03-06T09:34:05.267Z,13.90
2023-03-06T09:36:33.264Z,14.57
2023-03-06T09:39:02.220Z,15.38
2023-03-06T09:41:33.957Z,14.23
2023-03-06T09:44:22.615Z,14.85
2023-03-06T09:47:10.849Z,14.75
2023-03-06T09:49:55.462Z,14.88
2023-03-06T09:52:30.773Z,15.27
2023-03-06T09:55:02.400Z,15.32
2023-03-06T09:57:35.967Z,14.27
2023-03-06T10:00:14.463Z,14.25
2023-03-06T10:02:45.864Z,14.00
2023-03-06T10:05:38.772Z,12.15
2023-03-06T10:08:30.952Z,13.25
2023-03-06T10:11:04.046Z,12.10
2023-03-06T10:13:47.853Z,11.75
2023-03-06T10:16:32.017Z,11.98
2023-03-06T10:19:04.567Z,12.50
2023-03-06T10:21:43.551Z,11.93
2023-03-06T10:24:23.003Z,10.25
2023-03-06T10:26:56.898Z,10.60
2023-03-06T10:29:29.259Z,9.35
2023-03-06T10:32:04.367Z,10.30
2023-03-06T10:37:11.570Z,10.63
2023-03-06T10:39:39.336Z,9.20
2023-03-06T10:42:05.893Z,9.75
2023-03-06T10:44:32.310Z,9.95
2023-03-06T10:46:58.786Z,8.98
2023-03-06T10:49:29.985Z,8.73
2023-03-06T10:52:01.292Z,9.23
2023-03-06T10:54:33.279Z,8.60
2023-03-06T10:57:30.397Z,8.63
2023-03-06T10:59:59.846Z,8.70
2023-03-06T11:02:27.878Z,8.57
2023-03-06T11:04:56.047Z,9.43
2023-03-06T11:07:26.071Z,9.52
2023-03-06T11:09:58.259Z,8.32
2023-03-06T11:12:28.876Z,9.40
2023-03-06T11:15:14.230Z,9.85
2023-03-06T11:18:01.218Z,9.95
2023-03-06T11:20:51.004Z,8.93
2023-03-06T11:23:35.189Z,9.00
2023-03-06T11:26:23.457Z,8.40
2023-03-06T11:28:54.780Z,7.40
2023-03-06T11:31:28.650Z,6.97
2023-03-06T11:34:04.759Z,7.70
2023-03-06T11:36:42.828Z,6.97
2023-03-06T11:39:22.713Z,7.15
2023-03-06T11:42:15.663Z,8.57
2023-03-06T11:44:51.678Z,9.43
2023-03-06T11:47:31.968Z,8.82
2023-03-06T11:50:01.293Z,10.10
2023-03-06T11:52:45.222Z,8.50
2023-03-06T11:55:32.522Z,8.85
2023-03-06T11:58:16.631Z,10.10
2023-03-06T12:01:13.545Z,8.80
2023-03-06T12:04:03.522Z,8.85
2023-03-06T12:06:41.453Z,8.48
2023-03-06T12:09:13.762Z,7.85
2023-03-06T12:11:54.145Z,8.63
2023-03-06T12:14:44.371Z,8.98
2023-03-06T12:17:36.888Z,8.05
2023-03-06T12:20:21.949Z,8.38
2023-03-06T12:23:14.556Z,7.80
2023-03-06T12:25:45.051Z,8.20
2023-03-06T12:28:27.945Z,8.20
2023-03-06T12:31:19.511Z,7.40
2023-03-06T12:33:56.249Z,7.60
2023-03-06T12:36:53.504Z,7.13
2023-03-06T12:39:43.094Z,6.45
2023-03-06T12:42:40.222Z,6.28
2023-03-06T12:45:26.677Z,5.60
2023-03-06T12:47:58.478Z,5.05
2023-03-06T12:50:28.673Z,5.85
2023-03-06T12:52:58.737Z,5.07
2023-03-06T12:55:26.216Z,5.22
2023-03-06T12:57:52.769Z,4.03
2023-03-06T13:00:34.234Z,4.32
2023-03-06T13:06:02.494Z,5.35
2023-03-06T13:09:06.450Z,7.30
2023-03-06T13:11:53.425Z,7.32
2023-03-06T13:14:54.142Z,7.40
2023-03-06T13:17:26.127Z,7.50
2023-03-06T13:20:14.501Z,8.02
2023-03-06T13:22:43.044Z,8.23
2023-03-06T13:27:54.482Z,8.45
2023-03-06T13:30:34.749Z,8.05
2023-03-06T13:33:01.182Z,7.97
2023-03-06T13:35:33.129Z,7.47
2023-03-06T13:38:00.983Z,7.53
2023-03-06T13:40:32.721Z,8.68
2023-03-06T13:43:03.465Z,7.70
2023-03-06T13:45:37.666Z,7.35
2023-03-06T13:50:52.584Z,7.72
2023-03-06T13:53:37.000Z,7.57
2023-03-06T13:56:33.117Z,7.72
2023-03-06T13:59:32.806Z,7.28
2023-03-06T14:02:23.902Z,6.72
2023-03-06T14:04:58.713Z,7.85
2023-03-06T14:07:26.572Z,8.43
2023-03-06T14:10:08.144Z,7.88
2023-03-06T14:12:38.205Z,9.18
2023-03-06T14:15:16.213Z,9.00
2023-03-06T14:17:54.040Z,8.23
2023-03-06T14:20:21.622Z,7.82
2023-03-06T14:22:47.977Z,7.90
2023-03-06T14:25:27.902Z,8.48
2023-03-06T14:27:58.213Z,8.13
2023-03-06T14:30:26.902Z,7.03
2023-03-06T14:32:54.994Z,7.20
2023-03-06T14:35:32.207Z,8.05
2023-03-06T14:38:04.035Z,8.35
2023-03-06T14:40:40.673Z,7.60
2023-03-06T14:43:11.911Z,7.80
2023-03-06T14:45:48.839Z,7.75
2023-03-06T14:48:15.364Z,8.13
2023-03-06T14:50:47.061Z,7.53
2023-03-06T14:53:21.576Z,8.80
2023-03-06T14:55:54.262Z,8.80
2023-03-06T14:58:31.367Z,7.55
2023-03-06T15:01:02.385Z,9.27
2023-03-06T15:03:50.697Z,7.50
2023-03-06T15:06:21.185Z,7.95
2023-03-06T15:08:54.213Z,7.15
2023-03-06T15:11:20.637Z,6.90
2023-03-06T15:14:00.588Z,7.95
2023-03-06T15:16:30.358Z,6.47
2023-03-06T15:18:59.777Z,6.70
2023-03-06T15:21:28.518Z,6.93
2023-03-06T15:23:56.981Z,7.85
2023-03-06T15:26:36.592Z,6.90
2023-03-06T15:29:20.796Z,6.30
2023-03-06T15:31:47.354Z,7.60
2023-03-06T15:34:13.657Z,8.57
2023-03-06T15:36:46.027Z,8.73
2023-03-06T15:39:32.767Z,8.30
2023-03-06T15:42:19.054Z,9.18
2023-03-06T15:44:54.598Z,9.48
2023-03-06T15:47:22.515Z,8.57
2023-03-06T15:49:51.880Z,8.88
2023-03-06T15:52:19.997Z,9.20
2023-03-06T15:54:46.467Z,9.20
2023-03-06T15:57:25.287Z,10.75
2023-03-06T15:59:52.447Z,10.52
2023-03-06T16:02:23.435Z,11.23
2023-03-06T16:04:50.350Z,10.38
2023-03-06T16:07:17.031Z,11.05
2023-03-06T16:09:43.854Z,13.00
2023-03-06T16:12:21.399Z,11.73
2023-03-06T16:14:48.713Z,11.45
2023-03-06T16:17:15.753Z,10.50
2023-03-06T16:19:42.910Z,11.13
2023-03-06T16:22:09.513Z,9.68
2023-03-06T16:24:37.084Z,10.20
2023-03-06T16:27:04.254Z,10.43
2023-03-06T16:29:30.967Z,10.70
2023-03-06T16:31:58.872Z,8.98
2023-03-06T16:34:25.443Z,10.55
2023-03-06T16:36:52.277Z,10.80
2023-03-06T16:39:21.574Z,9.27
2023-03-06T16:41:49.258Z,9.23
2023-03-06T16:44:16.255Z,9.13
2023-03-06T16:46:47.643Z,9.35
2023-03-06T16:49:23.676Z,8.57
2023-03-06T16:51:51.177Z,9.20
2023-03-06T16:54:18.069Z,10.35
2023-03-06T16:56:44.712Z,8.77
2023-03-06T16:59:12.053Z,9.00
2023-03-06T17:01:42.404Z,8.60
2023-03-06T17:04:08.866Z,9.35
2023-03-06T17:06:35.365Z,9.52
2023-03-06T17:09:01.797Z,8.63
2023-03-06T17:11:28.311Z,7.47
2023-03-06T17:13:55.209Z,8.95
2023-03-06T17:16:21.900Z,8.82
2023-03-06T17:18:49.408Z,9.10
2023-03-06T17:21:15.931Z,10.02
2023-03-06T17:23:43.047Z,9.40
2023-03-06T17:26:12.708Z,9.10
2023-03-06T17:28:39.897Z,11.18
2023-03-06T17:31:15.341Z,10.77
2023-03-06T17:33:41.942Z,10.43
2023-03-06T17:36:09.408Z,10.98
2023-03-06T17:38:36.244Z,9.57
2023-03-06T17:41:07.583Z,10.27
2023-03-06T17:43:33.986Z,10.57
2023-03-06T17:46:04.690Z,9.25
2023-03-06T17:48:31.294Z,10.77
2023-03-06T17:50:57.905Z,10.15
2023-03-06T17:53:24.457Z,9.85
2023-03-06T17:55:51.050Z,10.27
2023-03-06T17:58:17.510Z,11.45
2023-03-06T18:00:44.038Z,10.07
2023-03-06T18:03:10.397Z,10.60
2023-03-06T18:05:37.635Z,10.57
2023-03-06T18:08:04.770Z,10.18
2023-03-06T18:10:31.270Z,10.85
2023-03-06T18:12:57.598Z,10.60
2023-03-06T18:15:23.970Z,11.25
2023-03-06T18:17:50.400Z,10.65
2023-03-06T18:20:17.315Z,10.77
2023-03-06T18:22:43.789Z,10.57
2023-03-06T18:25:10.290Z,12.20
2023-03-06T18:27:37.133Z,11.43
2023-03-06T18:30:04.230Z,11.60
2023-03-06T18:32:30.803Z,11.07
2023-03-06T18:34:57.270Z,11.98
2023-03-06T18:37:23.734Z,11.48
2023-03-06T18:39:50.168Z,10.93
2023-03-06T18:42:16.573Z,10.70
2023-03-06T18:44:43.930Z,11.52
2023-03-06T18:47:10.289Z,11.82
2023-03-06T18:49:38.497Z,11.52
2023-03-06T18:52:06.293Z,11.77
2023-03-06T18:54:32.685Z,9.95
2023-03-06T18:56:59.127Z,11.02
2023-03-06T18:59:25.912Z,10.70
2023-03-06T19:01:57.329Z,10.85
2023-03-06T19:04:25.761Z,11.82
2023-03-06T19:06:52.529Z,12.02
2023-03-06T19:09:19.146Z,11.90
2023-03-06T19:11:46.813Z,11.13
2023-03-06T19:14:16.750Z,10.75
2023-03-06T19:16:43.393Z,11.00
2023-03-06T19:19:09.938Z,10.95
2023-03-06T19:21:36.438Z,11.60
2023-03-06T19:24:03.115Z,12.05
2023-03-06T19:26:29.539Z,11.00
2023-03-06T19:28:55.931Z,12.52
2023-03-06T19:31:25.621Z,11.02
2023-03-06T19:33:53.838Z,12.52
2023-03-06T19:36:23.562Z,11.55
2023-03-06T19:38:56.662Z,11.23
2023-03-06T19:41:23.489Z,11.77
2023-03-06T19:43:52.867Z,10.15
2023-03-06T19:46:20.914Z,10.23
2023-03-06T19:48:47.651Z,11.15
2023-03-06T19:51:14.667Z,11.00
2023-03-06T19:53:41.213Z,9.95
2023-03-06T19:56:11.190Z,10.35
2023-03-06T19:58:38.199Z,10.57
2023-03-06T20:01:13.102Z,9.82
2023-03-06T20:03:40.744Z,9.80
2023-03-06T20:06:11.753Z,10.93
2023-03-06T20:08:38.180Z,10.13
2023-03-06T20:11:04.851Z,10.15
2023-03-06T20:13:31.561Z,9.80
2023-03-06T20:16:02.561Z,10.13
2023-03-06T20:18:28.996Z,10.00
2023-03-06T20:21:02.309Z,9.38
2023-03-06T20:23:29.543Z,11.73
2023-03-06T20:25:55.973Z,9.45
2023-03-06T20:28:22.743Z,10.63
2023-03-06T20:30:49.206Z,10.80
2023-03-06T20:33:16.653Z,10.18
2023-03-06T20:35:44.173Z,10.05
2023-03-06T20:38:11.237Z,10.15
2023-03-06T20:40:38.861Z,9.80
2023-03-06T20:43:05.682Z,11.57
2023-03-06T20:45:32.545Z,10.57
2023-03-06T20:47:58.918Z,12.20
2023-03-06T20:50:27.992Z,11.52
2023-03-06T20:52:56.395Z,6.20
2023-03-06T20:55:22.916Z,10.45
2023-03-06T20:57:50.999Z,10.88
2023-03-06T21:00:18.856Z,10.90
2023-03-06T21:02:45.254Z,12.93
2023-03-06T21:05:11.678Z,11.93
2023-03-06T21:07:39.534Z,12.23
2023-03-06T21:10:06.647Z,11.98
2023-03-06T21:12:33.045Z,11.38
2023-03-06T21:14:59.418Z,12.35
2023-03-06T21:17:26.940Z,11.77
2023-03-06T21:19:53.602Z,12.85
2023-03-06T21:22:20.103Z,12.43
2023-03-06T21:24:46.484Z,10.75
2023-03-06T21:27:12.836Z,12.45
2023-03-06T21:29:39.251Z,12.45
2023-03-06T21:32:05.952Z,12.70
2023-03-06T21:34:32.607Z,13.40
2023-03-06T21:36:58.988Z,12.63
2023-03-06T21:39:25.341Z,12.02
2023-03-06T21:41:51.683Z,12.77
2023-03-06T21:44:18.041Z,11.88
2023-03-06T21:46:44.421Z,12.57
2023-03-06T21:49:10.839Z,11.73
2023-03-06T21:51:37.301Z,12.65
2023-03-06T21:54:05.735Z,12.77
2023-03-06T21:56:33.370Z,12.80
2023-03-06T21:58:59.880Z,11.90
2023-03-06T22:01:28.566Z,12.40
2023-03-06T22:06:25.031Z,12.60
2023-03-06T22:08:52.099Z,13.63
2023-03-06T22:11:20.405Z,12.73
2023-03-06T22:13:50.482Z,12.80
2023-03-06T22:16:17.600Z,13.00
2023-03-06T22:18:45.936Z,14.27
2023-03-06T22:21:14.770Z,13.65
2023-03-06T22:23:41.788Z,13.00
2023-03-06T22:26:12.472Z,13.75
2023-03-06T22:28:39.754Z,12.55
2023-03-06T22:31:13.910Z,13.35
2023-03-06T22:33:41.048Z,12.63
2023-03-06T22:36:10.530Z,12.95
2023-03-06T22:38:39.869Z,14.00
2023-03-06T22:41:07.581Z,12.90
2023-03-06T22:43:34.869Z,12.90
2023-03-06T22:46:06.906Z,12.75
2023-03-06T22:48:33.974Z,13.57
2023-03-06T22:51:09.531Z,12.02
2023-03-06T22:53:36.657Z,12.43
2023-03-06T22:56:05.254Z,11.48
2023-03-06T22:58:36.685Z,11.65
2023-03-06T23:01:23.228Z,11.93
2023-03-06T23:03:58.402Z,10.88
2023-03-06T23:06:27.566Z,10.70
2023-03-06T23:09:00.285Z,11.43
2023-03-06T23:11:28.732Z,10.43
2023-03-06T23:14:15.027Z,9.82
2023-03-06T23:17:00.123Z,9.65
2023-03-06T23:19:45.323Z,9.23
2023-03-06T23:22:30.492Z,9.38
2023-03-06T23:25:15.793Z,8.45
2023-03-06T23:27:42.182Z,7.97
2023-03-06T23:30:09.301Z,9.13
2023-03-06T23:32:35.739Z,8.73
2023-03-06T23:35:02.142Z,7.97
2023-03-06T23:37:28.531Z,8.00
2023-03-06T23:39:55.116Z,7.85
2023-03-06T23:42:22.486Z,7.28
2023-03-06T23:44:48.927Z,8.18
2023-03-06T23:47:17.074Z,7.28
2023-03-06T23:49:43.481Z,6.93
2023-03-06T23:52:09.835Z,6.72
2023-03-06T23:54:36.335Z,7.20
2023-03-06T23:57:02.805Z,7.20
2023-03-06T23:59:29.269Z,5.72
